createdAt,value
2017-05-31T00:02:26.856Z,91.30
2017-05-31T00:04:57.270Z,92.80
2017-05-31T00:07:27.516Z,93.90
2017-05-31T00:09:58.031Z,91.30
2017-05-31T00:12:28.056Z,86.20
2017-05-31T00:14:58.316Z,84.60
2017-05-31T00:17:28.591Z,91.40
2017-05-31T00:19:58.810Z,84.90
2017-05-31T00:22:28.985Z,87.20
2017-05-31T00:24:58.954Z,90.30
2017-05-31T00:27:28.904Z,89.80
2017-05-31T00:29:58.352Z,90.00
2017-05-31T00:32:28.511Z,93.00
2017-05-31T00:34:58.732Z,93.80
2017-05-31T00:37:29.018Z,92.70
2017-05-31T00:39:59.323Z,92.20
2017-05-31T00:42:29.545Z,97.30
2017-05-31T00:45:00.073Z,95.60
2017-05-31T00:47:30.368Z,90.90
2017-05-31T00:50:00.795Z,90.90
2017-05-31T00:52:31.982Z,92.00
2017-05-31T00:55:01.903Z,93.00
2017-05-31T00:57:32.181Z,93.70
2017-05-31T01:00:01.733Z,93.60
2017-05-31T01:02:32.784Z,93.50
2017-05-31T01:05:03.131Z,99.10
2017-05-31T01:07:33.109Z,98.30
2017-05-31T01:10:03.327Z,97.80
2017-05-31T01:12:33.591Z,98.40
2017-05-31T01:15:03.710Z,99.40
2017-05-31T01:17:33.837Z,99.20
2017-05-31T01:20:02.619Z,99.10
2017-05-31T01:22:31.293Z,97.10
2017-05-31T01:25:00.119Z,97.20
2017-05-31T01:27:28.809Z,97.30
2017-05-31T01:29:57.575Z,95.40
2017-05-31T01:32:27.667Z,98.10
2017-05-31T01:34:57.744Z,97.30
2017-05-31T01:37:28.182Z,97.50
2017-05-31T01:39:58.106Z,97.50
2017-05-31T01:42:28.231Z,98.50
2017-05-31T01:44:58.655Z,98.80
2017-05-31T01:47:28.838Z,98.30
2017-05-31T01:49:58.902Z,96.70
2017-05-31T01:52:29.253Z,99.00
2017-05-31T01:55:00.710Z,98.00
2017-05-31T01:57:30.843Z,96.80
2017-05-31T02:00:00.876Z,94.80
2017-05-31T02:02:31.202Z,97.70
2017-05-31T02:05:01.648Z,97.60
2017-05-31T02:07:31.962Z,96.30
2017-05-31T02:10:01.258Z,96.30
2017-05-31T02:12:32.173Z,97.20
2017-05-31T02:15:02.569Z,97.60
2017-05-31T02:17:32.569Z,97.80
2017-05-31T02:20:02.704Z,96.90
2017-05-31T02:22:32.740Z,98.50
2017-05-31T02:25:02.764Z,96.80
2017-05-31T02:27:33.094Z,95.70
2017-05-31T02:30:03.357Z,98.70
2017-05-31T02:32:32.611Z,98.70
2017-05-31T02:35:02.954Z,99.90
2017-05-31T02:37:33.305Z,99.90
2017-05-31T02:40:04.301Z,98.10
2017-05-31T02:42:34.287Z,97.00
2017-05-31T02:45:04.628Z,98.10
2017-05-31T02:47:34.875Z,97.10
2017-05-31T02:50:05.098Z,97.70
2017-05-31T02:52:35.175Z,96.60
2017-05-31T02:55:06.764Z,97.10
2017-05-31T02:57:36.724Z,96.50
2017-05-31T03:00:06.032Z,96.50
2017-05-31T03:02:36.435Z,96.50
2017-05-31T03:05:06.590Z,95.70
2017-05-31T03:07:36.880Z,97.40
2017-05-31T03:10:07.076Z,98.00
2017-05-31T03:12:37.435Z,97.80
2017-05-31T03:15:07.137Z,97.90
2017-05-31T03:17:37.351Z,95.00
2017-05-31T03:20:07.514Z,95.40
2017-05-31T03:22:38.001Z,95.60
2017-05-31T03:25:07.345Z,95.50
2017-05-31T03:27:37.540Z,96.00
2017-05-31T03:30:08.151Z,96.80
2017-05-31T03:32:38.395Z,99.90
2017-05-31T03:35:08.723Z,99.90
2017-05-31T03:37:38.832Z,99.90
2017-05-31T03:40:09.138Z,99.90
2017-05-31T03:42:39.322Z,99.90
2017-05-31T03:45:09.695Z,99.90
2017-05-31T03:47:39.429Z,99.90
2017-05-31T03:50:09.715Z,99.90
2017-05-31T03:52:40.007Z,99.90
2017-05-31T03:55:10.861Z,99.90
2017-05-31T03:57:41.090Z,99.90
2017-05-31T04:00:11.291Z,99.90
2017-05-31T04:02:41.526Z,99.90
2017-05-31T04:05:13.901Z,99.90
2017-05-31T04:07:44.029Z,99.90
2017-05-31T04:10:14.431Z,99.90
2017-05-31T04:12:44.849Z,99.90
2017-05-31T04:15:17.419Z,99.90
2017-05-31T04:17:47.565Z,99.90
2017-05-31T04:20:18.789Z,99.90
2017-05-31T04:22:48.838Z,99.90
2017-05-31T04:25:18.809Z,99.90
2017-05-31T04:27:49.146Z,99.90
2017-05-31T04:30:19.490Z,99.90
2017-05-31T04:32:49.470Z,99.90
2017-05-31T04:35:18.854Z,99.90
2017-05-31T04:37:49.212Z,99.90
2017-05-31T04:40:19.068Z,99.90
2017-05-31T04:42:49.367Z,99.90
2017-05-31T04:45:19.498Z,99.90
2017-05-31T04:47:49.881Z,99.90
2017-05-31T04:50:19.230Z,99.90
2017-05-31T04:52:49.514Z,99.90
2017-05-31T04:55:20.657Z,99.90
2017-05-31T04:57:50.959Z,99.90
2017-05-31T05:00:20.966Z,99.90
2017-05-31T05:02:50.427Z,99.90
2017-05-31T05:05:20.736Z,99.90
2017-05-31T05:07:50.559Z,99.90
2017-05-31T05:10:21.017Z,99.90
2017-05-31T05:12:51.062Z,99.90
2017-05-31T05:15:21.248Z,99.90
2017-05-31T05:17:51.496Z,99.90
2017-05-31T05:20:21.491Z,99.90
2017-05-31T05:22:50.964Z,99.90
2017-05-31T05:25:21.271Z,99.90
2017-05-31T05:27:51.627Z,99.90
2017-05-31T05:30:22.039Z,99.90
2017-05-31T05:32:52.214Z,99.90
2017-05-31T05:35:22.347Z,99.90
2017-05-31T05:37:52.521Z,99.90
2017-05-31T05:40:22.882Z,99.90
2017-05-31T05:42:53.215Z,99.90
2017-05-31T05:45:23.431Z,99.90
2017-05-31T05:47:53.468Z,99.90
2017-05-31T05:50:23.537Z,99.90
2017-05-31T05:52:53.850Z,99.90
2017-05-31T05:55:25.846Z,99.90
2017-05-31T05:57:55.241Z,99.90
2017-05-31T06:00:25.425Z,99.90
2017-05-31T06:02:55.474Z,99.90
2017-05-31T06:05:26.024Z,99.90
2017-05-31T06:07:56.500Z,99.90
2017-05-31T06:10:26.807Z,99.90
2017-05-31T06:12:56.990Z,99.90
2017-05-31T06:15:26.970Z,98.30
2017-05-31T06:17:56.608Z,98.10
2017-05-31T06:20:26.847Z,96.20
2017-05-31T06:22:56.383Z,96.20
2017-05-31T06:25:26.474Z,96.60
2017-05-31T06:27:56.332Z,96.90
2017-05-31T06:30:26.391Z,96.20
2017-05-31T06:32:56.629Z,98.20
2017-05-31T06:35:26.969Z,97.50
2017-05-31T06:37:57.142Z,96.80
2017-05-31T06:40:27.344Z,94.90
2017-05-31T06:42:57.466Z,98.40
2017-05-31T06:45:27.732Z,96.40
2017-05-31T06:47:57.819Z,96.10
2017-05-31T06:50:27.919Z,92.80
2017-05-31T06:52:57.967Z,95.00
2017-05-31T06:55:29.287Z,95.70
2017-05-31T06:57:59.421Z,96.50
2017-05-31T07:00:29.941Z,97.50
2017-05-31T07:02:59.967Z,95.50
2017-05-31T07:05:30.263Z,93.40
2017-05-31T07:08:00.279Z,94.20
2017-05-31T07:10:30.351Z,95.00
2017-05-31T07:13:00.603Z,93.40
2017-05-31T07:15:30.136Z,93.40
2017-05-31T07:18:00.212Z,97.00
2017-05-31T07:20:30.457Z,95.00
2017-05-31T07:23:00.625Z,97.00
2017-05-31T07:25:31.087Z,96.70
2017-05-31T07:28:00.983Z,96.40
2017-05-31T07:30:31.010Z,96.40
2017-05-31T07:33:01.372Z,95.60
2017-05-31T07:35:31.530Z,96.30
2017-05-31T07:38:01.773Z,91.30
2017-05-31T07:40:31.833Z,93.60
2017-05-31T07:43:01.064Z,93.60
2017-05-31T07:45:31.115Z,93.40
2017-05-31T07:48:01.625Z,94.70
2017-05-31T07:50:31.412Z,93.60
2017-05-31T07:53:01.603Z,93.70
2017-05-31T07:55:32.995Z,94.90
2017-05-31T07:58:03.111Z,95.30
2017-05-31T08:00:33.349Z,94.80
2017-05-31T08:03:03.684Z,96.30
2017-05-31T08:05:33.903Z,93.50
2017-05-31T08:08:04.199Z,92.20
2017-05-31T08:10:34.178Z,92.60
2017-05-31T08:13:03.597Z,92.50
2017-05-31T08:15:33.954Z,93.60
2017-05-31T08:18:04.133Z,93.30
2017-05-31T08:20:34.175Z,94.70
2017-05-31T08:23:04.432Z,94.40
2017-05-31T08:25:34.745Z,93.80
2017-05-31T08:28:04.682Z,94.10
2017-05-31T08:30:34.716Z,94.90
2017-05-31T08:33:04.091Z,94.90
2017-05-31T08:35:34.117Z,95.00
2017-05-31T08:38:04.341Z,94.60
2017-05-31T08:40:34.335Z,95.10
2017-05-31T08:43:04.496Z,94.30
2017-05-31T08:45:34.864Z,92.20
2017-05-31T08:48:04.875Z,94.80
2017-05-31T08:50:42.658Z,93.30
2017-05-31T08:53:13.063Z,91.60
2017-05-31T08:55:44.709Z,93.80
2017-05-31T08:58:14.711Z,91.80
2017-05-31T09:00:44.971Z,93.40
2017-05-31T09:03:14.959Z,93.50
2017-05-31T09:05:44.939Z,90.90
2017-05-31T09:08:15.212Z,91.70
2017-05-31T09:10:45.699Z,91.80
2017-05-31T09:13:15.924Z,92.30
2017-05-31T09:15:46.273Z,90.70
2017-05-31T09:18:16.518Z,92.90
2017-05-31T09:20:46.649Z,94.10
2017-05-31T09:23:16.866Z,93.60
2017-05-31T09:25:47.424Z,94.50
2017-05-31T09:28:17.613Z,94.00
2017-05-31T09:30:47.590Z,94.00
2017-05-31T09:33:17.932Z,91.20
2017-05-31T09:35:47.419Z,91.20
2017-05-31T09:38:17.578Z,93.40
2017-05-31T09:40:47.365Z,93.90
2017-05-31T09:43:17.402Z,93.60
2017-05-31T09:45:47.356Z,91.80
2017-05-31T09:48:17.423Z,94.00
2017-05-31T09:50:47.220Z,93.10
2017-05-31T09:53:17.226Z,92.20
2017-05-31T09:55:47.528Z,92.80
2017-05-31T09:58:17.599Z,93.00
2017-05-31T10:00:47.647Z,93.10
2017-05-31T10:03:17.042Z,93.10
2017-05-31T10:05:47.020Z,95.80
2017-05-31T10:08:17.267Z,94.70
2017-05-31T10:10:47.587Z,96.20
2017-05-31T10:13:17.023Z,96.20
2017-05-31T10:15:47.415Z,95.90
2017-05-31T10:18:16.870Z,95.90
2017-05-31T10:20:47.252Z,99.40
2017-05-31T10:23:17.196Z,99.30
2017-05-31T10:25:47.737Z,99.20
2017-05-31T10:28:17.895Z,98.60
2017-05-31T10:30:47.483Z,99.90
2017-05-31T10:33:17.528Z,98.90
2017-05-31T10:35:47.537Z,98.70
2017-05-31T10:38:17.824Z,99.30
2017-05-31T10:40:54.259Z,98.40
2017-05-31T10:43:24.302Z,98.90
2017-05-31T10:45:54.553Z,98.30
2017-05-31T10:48:24.788Z,96.30
2017-05-31T10:50:55.106Z,95.50
2017-05-31T10:53:25.270Z,95.20
2017-05-31T10:55:56.653Z,97.60
2017-05-31T10:58:26.730Z,98.50
2017-05-31T11:00:56.318Z,98.50
2017-05-31T11:03:27.120Z,97.50
2017-05-31T11:05:57.111Z,97.30
2017-05-31T11:08:27.105Z,97.70
2017-05-31T11:10:57.415Z,98.60
2017-05-31T11:13:27.340Z,98.80
2017-05-31T11:15:57.328Z,98.40
2017-05-31T11:18:27.393Z,97.90
2017-05-31T11:20:57.603Z,99.40
2017-05-31T11:23:27.900Z,99.90
2017-05-31T11:25:58.142Z,99.90
2017-05-31T11:28:28.369Z,99.90
2017-05-31T11:30:58.737Z,99.90
2017-05-31T11:33:29.241Z,99.90
2017-05-31T11:35:58.463Z,99.90
2017-05-31T11:38:28.674Z,99.70
2017-05-31T11:40:58.926Z,98.70
2017-05-31T11:43:28.811Z,98.00
2017-05-31T11:45:59.056Z,98.70
2017-05-31T11:48:29.391Z,98.80
2017-05-31T11:50:59.618Z,99.20
2017-05-31T11:53:29.679Z,98.40
2017-05-31T11:56:01.223Z,99.50
2017-05-31T11:58:30.865Z,99.50
2017-05-31T12:01:01.407Z,98.70
2017-05-31T12:03:31.523Z,98.80
2017-05-31T12:06:01.635Z,99.90
2017-05-31T12:08:31.779Z,99.90
2017-05-31T12:11:02.206Z,99.90
2017-05-31T12:13:32.418Z,99.90
2017-05-31T12:16:02.396Z,99.90
2017-05-31T12:18:32.277Z,99.90
2017-05-31T12:21:02.396Z,99.90
2017-05-31T12:23:32.390Z,99.90
2017-05-31T12:26:02.639Z,99.90
2017-05-31T12:28:32.786Z,99.90
2017-05-31T12:31:02.883Z,99.90
2017-05-31T12:33:33.347Z,99.90
2017-05-31T12:36:02.785Z,99.90
2017-05-31T12:38:33.059Z,99.90
2017-05-31T12:41:03.303Z,99.90
2017-05-31T12:43:33.503Z,99.90
2017-05-31T12:46:03.674Z,99.90
2017-05-31T12:48:33.837Z,99.90
2017-05-31T12:51:04.259Z,99.90
2017-05-31T12:53:33.913Z,99.90
2017-05-31T12:56:04.735Z,99.90
2017-05-31T12:58:34.223Z,99.90
2017-05-31T13:01:04.405Z,99.90
2017-05-31T13:03:34.580Z,99.90
2017-05-31T13:06:04.941Z,99.90
2017-05-31T13:08:35.258Z,99.90
2017-05-31T13:11:05.432Z,99.90
2017-05-31T13:13:35.013Z,99.90
2017-05-31T13:16:04.934Z,99.90
2017-05-31T13:18:35.115Z,99.90
2017-05-31T13:21:05.416Z,99.90
2017-05-31T13:23:34.887Z,99.90
2017-05-31T13:26:04.642Z,99.90
2017-05-31T13:28:34.751Z,99.90
2017-05-31T13:31:04.846Z,99.90
2017-05-31T13:33:34.933Z,99.20
2017-05-31T13:36:04.864Z,99.40
2017-05-31T13:38:35.062Z,99.60
2017-05-31T13:41:05.116Z,98.30
2017-05-31T13:43:35.471Z,99.20
2017-05-31T13:46:05.555Z,99.40
2017-05-31T13:48:35.683Z,98.40
2017-05-31T13:51:05.930Z,97.00
2017-05-31T13:53:35.575Z,97.10
2017-05-31T13:56:06.468Z,93.60
2017-05-31T13:58:36.806Z,91.50
2017-05-31T14:01:07.023Z,91.90
2017-05-31T14:03:37.346Z,90.80
2017-05-31T14:06:07.481Z,90.40
2017-05-31T14:08:37.680Z,89.00
2017-05-31T14:11:07.750Z,88.00
2017-05-31T14:13:38.278Z,83.00
2017-05-31T14:16:08.398Z,80.10
2017-05-31T14:18:38.617Z,80.80
2017-05-31T14:21:08.748Z,78.20
2017-05-31T14:23:38.771Z,76.30
2017-05-31T14:26:08.717Z,78.00
2017-05-31T14:28:38.764Z,77.20
2017-05-31T14:31:08.448Z,68.80
2017-05-31T14:33:38.419Z,69.40
2017-05-31T14:36:08.727Z,73.10
2017-05-31T14:38:39.066Z,69.80
2017-05-31T14:41:09.312Z,72.00
2017-05-31T14:43:39.538Z,68.50
2017-05-31T14:46:09.612Z,69.70
2017-05-31T14:48:39.795Z,65.40
2017-05-31T14:51:09.374Z,65.20
2017-05-31T14:53:39.523Z,67.90
2017-05-31T14:56:10.327Z,69.90
2017-05-31T14:58:40.579Z,67.00
2017-05-31T15:01:10.636Z,63.00
2017-05-31T15:03:40.939Z,57.70
2017-05-31T15:06:10.916Z,58.90
2017-05-31T15:08:40.931Z,59.80
2017-05-31T15:11:11.023Z,57.70
2017-05-31T15:13:41.105Z,59.60
2017-05-31T15:16:10.670Z,59.50
2017-05-31T15:18:40.053Z,58.40
2017-05-31T15:21:08.728Z,58.50
2017-05-31T15:23:37.487Z,52.00
2017-05-31T15:26:07.718Z,48.60
2017-05-31T15:28:38.022Z,42.20
2017-05-31T15:31:08.301Z,44.50
2017-05-31T15:33:38.368Z,35.30
2017-05-31T15:36:08.624Z,41.20
2017-05-31T15:38:38.971Z,38.90
2017-05-31T15:41:09.181Z,39.80
2017-05-31T15:43:39.213Z,40.40
2017-05-31T15:46:09.552Z,38.40
2017-05-31T15:48:39.847Z,40.00
2017-05-31T15:51:09.692Z,41.20
2017-05-31T15:53:39.982Z,40.80
2017-05-31T15:56:10.907Z,48.30
2017-05-31T15:58:40.398Z,48.10
2017-05-31T16:01:10.624Z,30.00
2017-05-31T16:03:40.780Z,31.50
2017-05-31T16:06:10.822Z,27.70
2017-05-31T16:08:40.921Z,30.80
2017-05-31T16:11:10.950Z,31.40
2017-05-31T16:13:41.184Z,28.10
2017-05-31T16:16:12.089Z,29.00
2017-05-31T16:18:42.964Z,29.90
2017-05-31T16:21:13.305Z,37.20
2017-05-31T16:23:43.733Z,40.90
2017-05-31T16:26:14.205Z,42.40
2017-05-31T16:28:44.380Z,44.40
2017-05-31T16:31:14.343Z,43.70
2017-05-31T16:33:45.602Z,41.30
2017-05-31T16:36:16.001Z,38.20
2017-05-31T16:38:45.609Z,37.70
2017-05-31T16:41:15.712Z,28.90
2017-05-31T16:43:45.987Z,27.30
2017-05-31T16:46:16.154Z,27.30
2017-05-31T16:48:46.398Z,24.50
2017-05-31T16:51:16.930Z,28.00
2017-05-31T16:53:47.288Z,28.80
2017-05-31T16:56:19.046Z,36.90
2017-05-31T16:58:49.435Z,43.00
2017-05-31T17:01:19.599Z,42.20
2017-05-31T17:03:49.980Z,37.10
2017-05-31T17:06:20.345Z,34.30
2017-05-31T17:08:50.450Z,42.20
2017-05-31T17:11:21.022Z,40.60
2017-05-31T17:13:51.443Z,42.20
2017-05-31T17:16:22.074Z,42.60
2017-05-31T17:18:52.489Z,37.00
2017-05-31T17:21:22.773Z,36.20
2017-05-31T17:23:53.086Z,48.30
2017-05-31T17:26:23.528Z,40.40
2017-05-31T17:28:53.929Z,47.60
2017-05-31T17:31:24.426Z,43.30
2017-05-31T17:33:54.649Z,41.70
2017-05-31T17:36:25.206Z,44.60
2017-05-31T17:38:55.511Z,32.30
2017-05-31T17:41:25.820Z,29.40
2017-05-31T17:43:56.162Z,31.80
2017-05-31T17:46:26.541Z,21.40
2017-05-31T17:48:57.008Z,21.10
2017-05-31T17:51:25.919Z,21.10
2017-05-31T17:53:55.337Z,19.20
2017-05-31T17:56:27.192Z,21.00
2017-05-31T17:58:57.487Z,19.40
2017-05-31T18:01:27.235Z,19.20
2017-05-31T18:03:57.651Z,21.30
2017-05-31T18:06:27.966Z,17.00
2017-05-31T18:08:58.338Z,14.80
2017-05-31T18:11:28.656Z,15.80
2017-05-31T18:13:59.219Z,14.70
2017-05-31T18:16:29.348Z,19.10
2017-05-31T18:18:59.086Z,19.10
2017-05-31T18:21:36.599Z,17.80
2017-05-31T18:24:06.724Z,19.90
2017-05-31T18:26:37.122Z,20.10
2017-05-31T18:29:07.441Z,21.50
2017-05-31T18:31:44.973Z,25.70
2017-05-31T18:34:15.367Z,22.50
2017-05-31T18:36:45.947Z,23.30
2017-05-31T18:39:16.074Z,21.20
2017-05-31T18:41:46.753Z,20.70
2017-05-31T18:44:17.172Z,23.50
2017-05-31T18:46:46.833Z,23.40
2017-05-31T18:49:17.236Z,23.20
2017-05-31T18:51:47.434Z,20.00
2017-05-31T18:54:17.778Z,20.40
2017-05-31T18:56:49.757Z,20.40
2017-05-31T18:59:20.062Z,24.60
2017-05-31T19:01:50.833Z,30.40
2017-05-31T19:04:21.128Z,32.30
2017-05-31T19:06:51.673Z,28.60
2017-05-31T19:09:21.830Z,26.30
2017-05-31T19:11:51.978Z,22.10
2017-05-31T19:14:22.322Z,22.60
2017-05-31T19:16:52.941Z,20.50
2017-05-31T19:19:23.225Z,18.00
2017-05-31T19:21:53.539Z,21.30
2017-05-31T19:24:23.897Z,20.70
2017-05-31T19:26:54.479Z,17.50
2017-05-31T19:29:24.823Z,19.80
2017-05-31T19:31:55.027Z,17.30
2017-05-31T19:34:25.435Z,18.40
2017-05-31T19:36:55.864Z,16.10
2017-05-31T19:39:25.962Z,14.70
2017-05-31T19:41:56.387Z,14.30
2017-05-31T19:44:26.637Z,16.00
2017-05-31T19:46:57.083Z,17.90
2017-05-31T19:49:27.275Z,22.10
2017-05-31T19:51:57.668Z,23.10
2017-05-31T19:54:27.828Z,27.10
2017-05-31T19:56:59.588Z,23.40
2017-05-31T19:59:29.809Z,28.30
2017-05-31T20:01:58.786Z,28.60
2017-05-31T20:04:28.965Z,27.80
2017-05-31T20:06:58.589Z,32.00
2017-05-31T20:09:27.570Z,31.70
2017-05-31T20:11:57.828Z,33.00
2017-05-31T20:14:28.157Z,26.70
2017-05-31T20:16:58.646Z,31.60
2017-05-31T20:19:29.056Z,30.10
2017-05-31T20:21:59.662Z,28.60
2017-05-31T20:24:29.956Z,27.60
2017-05-31T20:27:00.406Z,32.00
2017-05-31T20:29:30.949Z,30.00
2017-05-31T20:32:01.362Z,30.80
2017-05-31T20:34:31.731Z,35.60
2017-05-31T20:37:01.975Z,32.40
2017-05-31T20:39:32.464Z,30.20
2017-05-31T20:42:02.728Z,34.40
2017-05-31T20:44:33.235Z,31.90
2017-05-31T20:47:03.453Z,32.40
2017-05-31T20:49:33.935Z,27.50
2017-05-31T20:52:04.412Z,29.30
2017-05-31T20:54:34.922Z,37.90
2017-05-31T20:57:19.836Z,27.10
2017-05-31T20:59:49.266Z,27.20
2017-05-31T21:02:19.546Z,31.40
2017-05-31T21:04:49.887Z,36.30
2017-05-31T21:07:25.513Z,31.50
2017-05-31T21:09:55.740Z,36.20
2017-05-31T21:12:26.052Z,32.10
2017-05-31T21:14:56.379Z,30.40
2017-05-31T21:17:26.575Z,28.70
2017-05-31T21:19:57.068Z,28.30
2017-05-31T21:22:27.246Z,27.70
2017-05-31T21:24:57.516Z,28.50
2017-05-31T21:27:27.610Z,27.70
2017-05-31T21:29:57.899Z,27.10
2017-05-31T21:32:28.180Z,33.80
2017-05-31T21:34:58.370Z,31.50
2017-05-31T21:37:27.820Z,30.90
2017-05-31T21:39:58.277Z,27.80
2017-05-31T21:42:28.826Z,28.00
2017-05-31T21:44:59.357Z,30.20
2017-05-31T21:47:29.621Z,30.40
2017-05-31T21:50:00.167Z,34.70
2017-05-31T21:52:30.569Z,29.40
2017-05-31T21:55:00.882Z,32.10
2017-05-31T21:57:32.340Z,32.90
2017-05-31T22:00:02.895Z,28.40
2017-05-31T22:02:33.337Z,36.20
2017-05-31T22:05:03.672Z,30.60
2017-05-31T22:07:33.975Z,34.50
2017-05-31T22:10:04.384Z,32.70
2017-05-31T22:12:34.789Z,35.40
2017-05-31T22:15:04.440Z,35.50
2017-05-31T22:17:34.970Z,31.70
2017-05-31T22:20:05.286Z,28.40
2017-05-31T22:22:35.508Z,29.80
2017-05-31T22:25:05.840Z,34.10
2017-05-31T22:27:35.969Z,31.80
2017-05-31T22:30:06.457Z,33.40
2017-05-31T22:32:36.894Z,35.30
2017-05-31T22:35:07.062Z,30.30
2017-05-31T22:37:37.487Z,38.70
2017-05-31T22:40:07.994Z,32.60
2017-05-31T22:42:38.309Z,34.90
2017-05-31T22:45:08.579Z,32.20
2017-05-31T22:47:38.977Z,29.40
2017-05-31T22:50:09.367Z,34.90
2017-05-31T22:52:39.882Z,30.50
2017-05-31T22:55:09.732Z,30.40
2017-05-31T22:57:40.775Z,34.40
2017-05-31T23:00:11.305Z,33.70
2017-05-31T23:02:41.828Z,30.00
2017-05-31T23:05:12.637Z,33.30
2017-05-31T23:07:43.130Z,36.60
2017-05-31T23:10:13.836Z,32.10
2017-05-31T23:12:44.011Z,34.90
2017-05-31T23:15:14.408Z,34.30
2017-05-31T23:17:44.877Z,37.30
2017-05-31T23:20:14.632Z,37.20
2017-05-31T23:22:45.144Z,40.50
2017-05-31T23:25:15.649Z,41.10
2017-05-31T23:27:46.002Z,37.10
2017-05-31T23:30:16.467Z,41.50
2017-05-31T23:32:46.814Z,42.50
2017-05-31T23:35:16.353Z,42.50
2017-05-31T23:37:46.778Z,37.50
2017-05-31T23:40:17.289Z,35.70
2017-05-31T23:42:47.737Z,39.10
2017-05-31T23:45:17.957Z,40.50
2017-05-31T23:47:48.215Z,37.40
2017-05-31T23:50:18.571Z,40.50
2017-05-31T23:52:48.905Z,38.90
2017-05-31T23:55:19.522Z,34.00
2017-05-31T23:57:50.391Z,39.60
